sensor_id;sensor_type;location;lat;lon;timestamp;P1;durP1;ratioP1;P2;durP2;ratioP2
13959;SDS011;7052;51.050;3.716;2023-02-15T00:00:00;63.63;;;43.37;;
13959;SDS011;7052;51.050;3.716;2023-02-15T00:02:28;64.47;;;44.20;;
13959;SDS011;7052;51.050;3.716;2023-02-15T00:04:56;59.50;;;41.63;;
13959;SDS011;7052;51.050;3.716;2023-02-15T00:07:23;60.30;;;42.43;;
13959;SDS011;7052;51.050;3.716;2023-02-15T00:09:53;58.90;;;42.50;;
13959;SDS011;7052;51.050;3.716;2023-02-15T00:12:20;56.97;;;40.00;;
13959;SDS011;7052;51.050;3.716;2023-02-15T00:14:48;58.23;;;39.50;;
13959;SDS011;7052;51.050;3.716;2023-02-15T00:17:15;57.30;;;41.37;;
13959;SDS011;7052;51.050;3.716;2023-02-15T00:19:42;57.93;;;40.53;;
13959;SDS011;7052;51.050;3.716;2023-02-15T00:22:11;60.53;;;41.03;;
13959;SDS011;7052;51.050;3.716;2023-02-15T00:24:38;53.10;;;38.67;;
13959;SDS011;7052;51.050;3.716;2023-02-15T00:27:05;55.73;;;37.83;;
13959;SDS011;7052;51.050;3.716;2023-02-15T00:29:35;55.50;;;39.33;;
13959;SDS011;7052;51.050;3.716;2023-02-15T00:32:02;52.83;;;37.03;;
13959;SDS011;7052;51.050;3.716;2023-02-15T00:34:29;53.73;;;37.87;;
13959;SDS011;7052;51.050;3.716;2023-02-15T00:36:56;52.07;;;37.87;;
13959;SDS011;7052;51.050;3.716;2023-02-15T00:39:25;55.43;;;37.60;;
13959;SDS011;7052;51.050;3.716;2023-02-15T00:41:52;55.50;;;37.93;;
13959;SDS011;7052;51.050;3.716;2023-02-15T00:44:19;53.83;;;37.00;;
13959;SDS011;7052;51.050;3.716;2023-02-15T00:46:46;52.97;;;36.53;;
13959;SDS011;7052;51.050;3.716;2023-02-15T00:49:13;52.97;;;37.87;;
13959;SDS011;7052;51.050;3.716;2023-02-15T00:51:40;55.53;;;38.13;;
13959;SDS011;7052;51.050;3.716;2023-02-15T00:54:07;55.20;;;38.47;;
13959;SDS011;7052;51.050;3.716;2023-02-15T00:56:36;52.53;;;37.17;;
13959;SDS011;7052;51.050;3.716;2023-02-15T00:59:04;53.10;;;37.57;;
13959;SDS011;7052;51.050;3.716;2023-02-15T01:01:32;55.27;;;38.33;;
13959;SDS011;7052;51.050;3.716;2023-02-15T01:03:59;59.03;;;38.93;;
13959;SDS011;7052;51.050;3.716;2023-02-15T01:06:26;52.30;;;36.77;;
13959;SDS011;7052;51.050;3.716;2023-02-15T01:08:53;48.63;;;35.80;;
13959;SDS011;7052;51.050;3.716;2023-02-15T01:11:22;51.27;;;36.77;;
13959;SDS011;7052;51.050;3.716;2023-02-15T01:13:51;50.83;;;36.57;;
13959;SDS011;7052;51.050;3.716;2023-02-15T01:16:19;55.83;;;37.70;;
13959;SDS011;7052;51.050;3.716;2023-02-15T01:18:54;56.17;;;37.13;;
13959;SDS011;7052;51.050;3.716;2023-02-15T01:21:22;57.07;;;36.73;;
13959;SDS011;7052;51.050;3.716;2023-02-15T01:23:51;55.07;;;38.97;;
13959;SDS011;7052;51.050;3.716;2023-02-15T01:26:18;55.37;;;37.73;;
13959;SDS011;7052;51.050;3.716;2023-02-15T01:28:45;53.70;;;38.50;;
13959;SDS011;7052;51.050;3.716;2023-02-15T01:31:15;55.37;;;39.03;;
13959;SDS011;7052;51.050;3.716;2023-02-15T01:33:45;56.00;;;40.60;;
13959;SDS011;7052;51.050;3.716;2023-02-15T01:36:13;60.90;;;40.17;;
13959;SDS011;7052;51.050;3.716;2023-02-15T01:38:42;52.80;;;38.73;;
13959;SDS011;7052;51.050;3.716;2023-02-15T01:41:11;57.97;;;38.30;;
13959;SDS011;7052;51.050;3.716;2023-02-15T01:43:52;57.23;;;39.77;;
13959;SDS011;7052;51.050;3.716;2023-02-15T01:46:24;57.87;;;42.70;;
13959;SDS011;7052;51.050;3.716;2023-02-15T01:48:58;58.47;;;41.77;;
13959;SDS011;7052;51.050;3.716;2023-02-15T01:51:28;58.17;;;40.27;;
13959;SDS011;7052;51.050;3.716;2023-02-15T01:54:01;57.07;;;40.37;;
13959;SDS011;7052;51.050;3.716;2023-02-15T01:56:35;59.07;;;39.60;;
13959;SDS011;7052;51.050;3.716;2023-02-15T01:59:05;57.70;;;40.43;;
13959;SDS011;7052;51.050;3.716;2023-02-15T02:01:36;58.27;;;41.07;;
13959;SDS011;7052;51.050;3.716;2023-02-15T02:04:05;61.03;;;42.50;;
13959;SDS011;7052;51.050;3.716;2023-02-15T02:06:37;59.70;;;41.30;;
13959;SDS011;7052;51.050;3.716;2023-02-15T02:09:06;60.90;;;41.97;;
13959;SDS011;7052;51.050;3.716;2023-02-15T02:11:33;62.50;;;42.37;;
13959;SDS011;7052;51.050;3.716;2023-02-15T02:14:01;60.77;;;42.67;;
13959;SDS011;7052;51.050;3.716;2023-02-15T02:16:28;63.47;;;43.20;;
13959;SDS011;7052;51.050;3.716;2023-02-15T02:19:19;58.60;;;41.73;;
13959;SDS011;7052;51.050;3.716;2023-02-15T02:22:13;61.60;;;41.33;;
13959;SDS011;7052;51.050;3.716;2023-02-15T02:28:13;66.37;;;43.73;;
13959;SDS011;7052;51.050;3.716;2023-02-15T02:31:05;61.37;;;43.23;;
13959;SDS011;7052;51.050;3.716;2023-02-15T02:33:55;62.87;;;43.50;;
13959;SDS011;7052;51.050;3.716;2023-02-15T02:36:29;65.53;;;45.23;;
13959;SDS011;7052;51.050;3.716;2023-02-15T02:39:09;68.43;;;46.43;;
13959;SDS011;7052;51.050;3.716;2023-02-15T02:41:50;63.50;;;44.23;;
13959;SDS011;7052;51.050;3.716;2023-02-15T02:44:34;66.10;;;45.30;;
13959;SDS011;7052;51.050;3.716;2023-02-15T02:47:10;66.43;;;45.60;;
13959;SDS011;7052;51.050;3.716;2023-02-15T02:49:43;63.23;;;45.40;;
13959;SDS011;7052;51.050;3.716;2023-02-15T02:55:02;68.13;;;45.73;;
13959;SDS011;7052;51.050;3.716;2023-02-15T02:57:31;66.20;;;46.57;;
13959;SDS011;7052;51.050;3.716;2023-02-15T03:00:02;66.33;;;46.27;;
13959;SDS011;7052;51.050;3.716;2023-02-15T03:02:37;68.30;;;46.70;;
13959;SDS011;7052;51.050;3.716;2023-02-15T03:05:11;66.97;;;44.90;;
13959;SDS011;7052;51.050;3.716;2023-02-15T03:07:42;65.67;;;44.53;;
13959;SDS011;7052;51.050;3.716;2023-02-15T03:10:13;67.27;;;46.20;;
13959;SDS011;7052;51.050;3.716;2023-02-15T03:12:41;63.77;;;45.80;;
13959;SDS011;7052;51.050;3.716;2023-02-15T03:15:09;65.20;;;45.63;;
13959;SDS011;7052;51.050;3.716;2023-02-15T03:17:40;66.20;;;46.10;;
13959;SDS011;7052;51.050;3.716;2023-02-15T03:20:14;64.20;;;44.10;;
13959;SDS011;7052;51.050;3.716;2023-02-15T03:22:45;65.50;;;46.10;;
13959;SDS011;7052;51.050;3.716;2023-02-15T03:25:17;67.70;;;46.10;;
13959;SDS011;7052;51.050;3.716;2023-02-15T03:27:48;67.37;;;46.00;;
13959;SDS011;7052;51.050;3.716;2023-02-15T03:30:21;61.87;;;44.23;;
13959;SDS011;7052;51.050;3.716;2023-02-15T03:32:50;68.00;;;44.93;;
13959;SDS011;7052;51.050;3.716;2023-02-15T03:35:20;62.33;;;44.73;;
13959;SDS011;7052;51.050;3.716;2023-02-15T03:37:50;64.10;;;44.33;;
13959;SDS011;7052;51.050;3.716;2023-02-15T03:40:22;62.23;;;44.00;;
13959;SDS011;7052;51.050;3.716;2023-02-15T03:43:10;65.00;;;43.80;;
13959;SDS011;7052;51.050;3.716;2023-02-15T03:45:44;63.13;;;43.67;;
13959;SDS011;7052;51.050;3.716;2023-02-15T03:48:21;62.10;;;44.07;;
13959;SDS011;7052;51.050;3.716;2023-02-15T03:50:54;61.57;;;42.80;;
13959;SDS011;7052;51.050;3.716;2023-02-15T03:53:43;64.03;;;43.43;;
13959;SDS011;7052;51.050;3.716;2023-02-15T03:56:13;60.27;;;42.23;;
13959;SDS011;7052;51.050;3.716;2023-02-15T03:58:40;62.77;;;43.27;;
13959;SDS011;7052;51.050;3.716;2023-02-15T04:01:25;61.77;;;43.20;;
13959;SDS011;7052;51.050;3.716;2023-02-15T04:04:15;62.73;;;43.87;;
13959;SDS011;7052;51.050;3.716;2023-02-15T04:06:48;61.43;;;41.80;;
13959;SDS011;7052;51.050;3.716;2023-02-15T04:09:15;60.07;;;41.63;;
13959;SDS011;7052;51.050;3.716;2023-02-15T04:12:00;60.40;;;41.43;;
13959;SDS011;7052;51.050;3.716;2023-02-15T04:14:29;61.70;;;41.77;;
13959;SDS011;7052;51.050;3.716;2023-02-15T04:17:13;62.53;;;40.70;;
13959;SDS011;7052;51.050;3.716;2023-02-15T04:19:40;59.93;;;40.33;;
13959;SDS011;7052;51.050;3.716;2023-02-15T04:22:26;59.47;;;38.77;;
13959;SDS011;7052;51.050;3.716;2023-02-15T04:25:10;63.27;;;39.97;;
13959;SDS011;7052;51.050;3.716;2023-02-15T04:27:38;54.23;;;37.90;;
13959;SDS011;7052;51.050;3.716;2023-02-15T04:30:08;55.20;;;38.23;;
13959;SDS011;7052;51.050;3.716;2023-02-15T04:32:36;59.33;;;39.20;;
13959;SDS011;7052;51.050;3.716;2023-02-15T04:35:05;54.67;;;37.37;;
13959;SDS011;7052;51.050;3.716;2023-02-15T04:37:34;57.60;;;37.93;;
13959;SDS011;7052;51.050;3.716;2023-02-15T04:40:01;53.83;;;38.43;;
13959;SDS011;7052;51.050;3.716;2023-02-15T04:42:32;52.90;;;36.63;;
13959;SDS011;7052;51.050;3.716;2023-02-15T04:44:59;52.30;;;36.93;;
13959;SDS011;7052;51.050;3.716;2023-02-15T04:47:26;56.20;;;37.97;;
13959;SDS011;7052;51.050;3.716;2023-02-15T04:49:54;53.53;;;38.27;;
13959;SDS011;7052;51.050;3.716;2023-02-15T04:52:23;59.60;;;37.33;;
13959;SDS011;7052;51.050;3.716;2023-02-15T04:54:53;53.10;;;35.83;;
13959;SDS011;7052;51.050;3.716;2023-02-15T04:57:20;55.47;;;36.50;;
13959;SDS011;7052;51.050;3.716;2023-02-15T04:59:49;55.77;;;35.73;;
13959;SDS011;7052;51.050;3.716;2023-02-15T05:02:16;54.43;;;34.90;;
13959;SDS011;7052;51.050;3.716;2023-02-15T05:04:45;54.30;;;35.33;;
13959;SDS011;7052;51.050;3.716;2023-02-15T05:07:14;49.03;;;34.77;;
13959;SDS011;7052;51.050;3.716;2023-02-15T05:09:41;51.33;;;34.73;;
13959;SDS011;7052;51.050;3.716;2023-02-15T05:12:09;48.77;;;34.70;;
13959;SDS011;7052;51.050;3.716;2023-02-15T05:14:36;49.70;;;35.57;;
13959;SDS011;7052;51.050;3.716;2023-02-15T05:17:03;61.17;;;35.23;;
13959;SDS011;7052;51.050;3.716;2023-02-15T05:19:30;48.47;;;33.50;;
13959;SDS011;7052;51.050;3.716;2023-02-15T05:21:57;53.33;;;35.10;;
13959;SDS011;7052;51.050;3.716;2023-02-15T05:24:24;50.90;;;35.53;;
13959;SDS011;7052;51.050;3.716;2023-02-15T05:27:11;50.03;;;33.23;;
13959;SDS011;7052;51.050;3.716;2023-02-15T05:29:56;52.50;;;33.97;;
13959;SDS011;7052;51.050;3.716;2023-02-15T05:32:23;51.77;;;34.30;;
13959;SDS011;7052;51.050;3.716;2023-02-15T05:34:50;48.37;;;33.23;;
13959;SDS011;7052;51.050;3.716;2023-02-15T05:37:17;46.43;;;32.37;;
13959;SDS011;7052;51.050;3.716;2023-02-15T05:39:44;52.87;;;33.63;;
13959;SDS011;7052;51.050;3.716;2023-02-15T05:42:13;50.83;;;34.50;;
13959;SDS011;7052;51.050;3.716;2023-02-15T05:44:42;48.80;;;33.40;;
13959;SDS011;7052;51.050;3.716;2023-02-15T05:47:14;53.23;;;34.50;;
13959;SDS011;7052;51.050;3.716;2023-02-15T05:49:44;49.60;;;33.03;;
13959;SDS011;7052;51.050;3.716;2023-02-15T05:52:10;49.50;;;33.37;;
13959;SDS011;7052;51.050;3.716;2023-02-15T05:54:37;51.17;;;33.37;;
13959;SDS011;7052;51.050;3.716;2023-02-15T05:57:04;52.53;;;34.20;;
13959;SDS011;7052;51.050;3.716;2023-02-15T05:59:34;46.97;;;33.40;;
13959;SDS011;7052;51.050;3.716;2023-02-15T06:02:01;51.47;;;34.17;;
13959;SDS011;7052;51.050;3.716;2023-02-15T06:04:28;50.40;;;33.47;;
13959;SDS011;7052;51.050;3.716;2023-02-15T06:06:57;44.87;;;31.83;;
13959;SDS011;7052;51.050;3.716;2023-02-15T06:09:24;53.70;;;34.40;;
13959;SDS011;7052;51.050;3.716;2023-02-15T06:11:50;50.57;;;34.23;;
13959;SDS011;7052;51.050;3.716;2023-02-15T06:14:17;45.43;;;32.37;;
13959;SDS011;7052;51.050;3.716;2023-02-15T06:16:47;51.87;;;33.47;;
13959;SDS011;7052;51.050;3.716;2023-02-15T06:19:15;61.60;;;40.30;;
13959;SDS011;7052;51.050;3.716;2023-02-15T06:21:43;54.13;;;36.30;;
13959;SDS011;7052;51.050;3.716;2023-02-15T06:24:11;51.53;;;34.87;;
13959;SDS011;7052;51.050;3.716;2023-02-15T06:26:39;48.63;;;33.23;;
13959;SDS011;7052;51.050;3.716;2023-02-15T06:29:06;46.27;;;32.87;;
13959;SDS011;7052;51.050;3.716;2023-02-15T06:31:34;47.67;;;31.97;;
13959;SDS011;7052;51.050;3.716;2023-02-15T06:34:06;46.50;;;32.43;;
13959;SDS011;7052;51.050;3.716;2023-02-15T06:36:33;44.03;;;31.37;;
13959;SDS011;7052;51.050;3.716;2023-02-15T06:39:00;47.00;;;32.53;;
13959;SDS011;7052;51.050;3.716;2023-02-15T06:41:27;51.67;;;33.77;;
13959;SDS011;7052;51.050;3.716;2023-02-15T06:43:54;47.73;;;33.10;;
13959;SDS011;7052;51.050;3.716;2023-02-15T06:46:21;48.30;;;33.93;;
13959;SDS011;7052;51.050;3.716;2023-02-15T06:48:48;49.00;;;33.43;;
13959;SDS011;7052;51.050;3.716;2023-02-15T06:51:16;44.70;;;31.53;;
13959;SDS011;7052;51.050;3.716;2023-02-15T06:53:45;47.57;;;32.93;;
13959;SDS011;7052;51.050;3.716;2023-02-15T06:56:12;49.33;;;32.83;;
13959;SDS011;7052;51.050;3.716;2023-02-15T06:58:39;49.40;;;33.43;;
13959;SDS011;7052;51.050;3.716;2023-02-15T07:01:06;52.23;;;33.30;;
13959;SDS011;7052;51.050;3.716;2023-02-15T07:03:34;44.13;;;32.03;;
13959;SDS011;7052;51.050;3.716;2023-02-15T07:06:02;47.00;;;32.13;;
13959;SDS011;7052;51.050;3.716;2023-02-15T07:08:37;45.37;;;32.07;;
13959;SDS011;7052;51.050;3.716;2023-02-15T07:11:05;49.43;;;33.27;;
13959;SDS011;7052;51.050;3.716;2023-02-15T07:13:51;47.70;;;33.53;;
13959;SDS011;7052;51.050;3.716;2023-02-15T07:16:19;50.10;;;33.57;;
13959;SDS011;7052;51.050;3.716;2023-02-15T07:18:48;51.87;;;33.50;;
13959;SDS011;7052;51.050;3.716;2023-02-15T07:21:15;47.53;;;32.73;;
13959;SDS011;7052;51.050;3.716;2023-02-15T07:23:43;46.57;;;32.00;;
13959;SDS011;7052;51.050;3.716;2023-02-15T07:26:11;48.53;;;32.57;;
13959;SDS011;7052;51.050;3.716;2023-02-15T07:28:38;49.20;;;32.07;;
13959;SDS011;7052;51.050;3.716;2023-02-15T07:31:05;44.17;;;30.93;;
13959;SDS011;7052;51.050;3.716;2023-02-15T07:33:33;44.13;;;31.60;;
13959;SDS011;7052;51.050;3.716;2023-02-15T07:36:02;49.73;;;33.40;;
13959;SDS011;7052;51.050;3.716;2023-02-15T07:38:31;48.47;;;32.47;;
13959;SDS011;7052;51.050;3.716;2023-02-15T07:41:02;47.27;;;31.47;;
13959;SDS011;7052;51.050;3.716;2023-02-15T07:43:30;49.27;;;32.93;;
13959;SDS011;7052;51.050;3.716;2023-02-15T07:45:59;48.73;;;32.17;;
13959;SDS011;7052;51.050;3.716;2023-02-15T07:48:26;44.20;;;31.90;;
13959;SDS011;7052;51.050;3.716;2023-02-15T07:50:53;51.13;;;31.87;;
13959;SDS011;7052;51.050;3.716;2023-02-15T07:53:20;45.83;;;32.03;;
13959;SDS011;7052;51.050;3.716;2023-02-15T07:55:48;47.27;;;30.93;;
13959;SDS011;7052;51.050;3.716;2023-02-15T07:58:16;45.00;;;31.10;;
13959;SDS011;7052;51.050;3.716;2023-02-15T08:00:43;48.60;;;32.37;;
13959;SDS011;7052;51.050;3.716;2023-02-15T08:03:26;49.73;;;32.30;;
13959;SDS011;7052;51.050;3.716;2023-02-15T08:05:55;51.33;;;31.67;;
13959;SDS011;7052;51.050;3.716;2023-02-15T08:08:23;45.90;;;31.27;;
13959;SDS011;7052;51.050;3.716;2023-02-15T08:10:57;47.67;;;30.93;;
13959;SDS011;7052;51.050;3.716;2023-02-15T08:13:45;44.20;;;30.47;;
13959;SDS011;7052;51.050;3.716;2023-02-15T08:16:18;42.97;;;30.20;;
13959;SDS011;7052;51.050;3.716;2023-02-15T08:18:46;48.30;;;31.03;;
13959;SDS011;7052;51.050;3.716;2023-02-15T08:21:14;43.03;;;29.43;;
13959;SDS011;7052;51.050;3.716;2023-02-15T08:23:41;42.07;;;29.77;;
13959;SDS011;7052;51.050;3.716;2023-02-15T08:26:08;41.47;;;30.00;;
13959;SDS011;7052;51.050;3.716;2023-02-15T08:28:35;43.90;;;30.07;;
13959;SDS011;7052;51.050;3.716;2023-02-15T08:31:07;43.97;;;28.67;;
13959;SDS011;7052;51.050;3.716;2023-02-15T08:33:36;45.73;;;29.57;;
13959;SDS011;7052;51.050;3.716;2023-02-15T08:36:05;41.60;;;29.23;;
13959;SDS011;7052;51.050;3.716;2023-02-15T08:38:34;43.40;;;30.07;;
13959;SDS011;7052;51.050;3.716;2023-02-15T08:41:08;41.30;;;28.87;;
13959;SDS011;7052;51.050;3.716;2023-02-15T08:43:36;42.23;;;29.43;;
13959;SDS011;7052;51.050;3.716;2023-02-15T08:46:06;43.87;;;28.13;;
13959;SDS011;7052;51.050;3.716;2023-02-15T08:48:36;39.83;;;28.17;;
13959;SDS011;7052;51.050;3.716;2023-02-15T08:51:04;38.47;;;28.20;;
13959;SDS011;7052;51.050;3.716;2023-02-15T08:53:33;48.67;;;30.20;;
13959;SDS011;7052;51.050;3.716;2023-02-15T08:56:00;40.37;;;28.10;;
13959;SDS011;7052;51.050;3.716;2023-02-15T08:58:28;36.63;;;27.37;;
13959;SDS011;7052;51.050;3.716;2023-02-15T09:00:57;41.10;;;27.27;;
13959;SDS011;7052;51.050;3.716;2023-02-15T09:03:31;44.63;;;28.07;;
13959;SDS011;7052;51.050;3.716;2023-02-15T09:05:58;46.57;;;29.03;;
13959;SDS011;7052;51.050;3.716;2023-02-15T09:08:26;42.07;;;27.80;;
13959;SDS011;7052;51.050;3.716;2023-02-15T09:10:53;40.83;;;28.53;;
13959;SDS011;7052;51.050;3.716;2023-02-15T09:13:20;43.20;;;28.27;;
13959;SDS011;7052;51.050;3.716;2023-02-15T09:15:47;39.37;;;28.07;;
13959;SDS011;7052;51.050;3.716;2023-02-15T09:18:17;38.30;;;27.13;;
13959;SDS011;7052;51.050;3.716;2023-02-15T09:20:46;39.37;;;27.63;;
13959;SDS011;7052;51.050;3.716;2023-02-15T09:23:14;39.77;;;26.23;;
13959;SDS011;7052;51.050;3.716;2023-02-15T09:25:41;42.20;;;28.07;;
13959;SDS011;7052;51.050;3.716;2023-02-15T09:28:08;38.60;;;25.53;;
13959;SDS011;7052;51.050;3.716;2023-02-15T09:30:35;36.73;;;24.63;;
13959;SDS011;7052;51.050;3.716;2023-02-15T09:33:04;37.73;;;25.53;;
13959;SDS011;7052;51.050;3.716;2023-02-15T09:35:35;38.27;;;26.17;;
13959;SDS011;7052;51.050;3.716;2023-02-15T09:38:05;35.17;;;25.53;;
13959;SDS011;7052;51.050;3.716;2023-02-15T09:40:33;37.50;;;25.13;;
13959;SDS011;7052;51.050;3.716;2023-02-15T09:43:13;43.07;;;27.40;;
13959;SDS011;7052;51.050;3.716;2023-02-15T09:46:11;36.10;;;25.53;;
13959;SDS011;7052;51.050;3.716;2023-02-15T09:48:54;40.40;;;25.90;;
13959;SDS011;7052;51.050;3.716;2023-02-15T09:51:37;36.23;;;25.13;;
13959;SDS011;7052;51.050;3.716;2023-02-15T09:54:32;36.20;;;24.97;;
13959;SDS011;7052;51.050;3.716;2023-02-15T09:57:16;35.00;;;23.97;;
13959;SDS011;7052;51.050;3.716;2023-02-15T09:59:50;40.13;;;26.30;;
13959;SDS011;7052;51.050;3.716;2023-02-15T10:02:31;42.93;;;24.33;;
13959;SDS011;7052;51.050;3.716;2023-02-15T10:05:25;47.90;;;26.33;;
13959;SDS011;7052;51.050;3.716;2023-02-15T10:08:10;37.90;;;25.77;;
13959;SDS011;7052;51.050;3.716;2023-02-15T10:10:53;40.20;;;25.47;;
13959;SDS011;7052;51.050;3.716;2023-02-15T10:13:49;37.50;;;24.87;;
13959;SDS011;7052;51.050;3.716;2023-02-15T10:16:25;44.10;;;25.23;;
13959;SDS011;7052;51.050;3.716;2023-02-15T10:19:02;35.90;;;24.63;;
13959;SDS011;7052;51.050;3.716;2023-02-15T10:21:40;48.57;;;25.90;;
13959;SDS011;7052;51.050;3.716;2023-02-15T10:24:27;43.13;;;25.17;;
13959;SDS011;7052;51.050;3.716;2023-02-15T10:27:12;40.87;;;26.00;;
13959;SDS011;7052;51.050;3.716;2023-02-15T10:29:45;48.40;;;25.47;;
13959;SDS011;7052;51.050;3.716;2023-02-15T10:32:22;33.43;;;23.57;;
13959;SDS011;7052;51.050;3.716;2023-02-15T10:34:51;44.53;;;26.50;;
13959;SDS011;7052;51.050;3.716;2023-02-15T10:37:32;43.63;;;26.83;;
13959;SDS011;7052;51.050;3.716;2023-02-15T10:40:25;46.57;;;27.20;;
13959;SDS011;7052;51.050;3.716;2023-02-15T10:43:06;37.73;;;24.53;;
13959;SDS011;7052;51.050;3.716;2023-02-15T10:45:45;40.53;;;25.33;;
13959;SDS011;7052;51.050;3.716;2023-02-15T10:48:26;49.63;;;25.87;;
13959;SDS011;7052;51.050;3.716;2023-02-15T10:51:05;40.20;;;26.30;;
13959;SDS011;7052;51.050;3.716;2023-02-15T10:54:05;37.87;;;24.77;;
13959;SDS011;7052;51.050;3.716;2023-02-15T10:56:45;41.10;;;25.63;;
13959;SDS011;7052;51.050;3.716;2023-02-15T10:59:26;49.13;;;26.07;;
13959;SDS011;7052;51.050;3.716;2023-02-15T11:02:10;43.97;;;25.60;;
13959;SDS011;7052;51.050;3.716;2023-02-15T11:04:51;40.00;;;25.57;;
13959;SDS011;7052;51.050;3.716;2023-02-15T11:07:27;48.40;;;27.70;;
13959;SDS011;7052;51.050;3.716;2023-02-15T11:10:01;42.93;;;26.17;;
13959;SDS011;7052;51.050;3.716;2023-02-15T11:12:40;56.17;;;27.90;;
13959;SDS011;7052;51.050;3.716;2023-02-15T11:15:15;40.80;;;26.10;;
13959;SDS011;7052;51.050;3.716;2023-02-15T11:17:51;40.40;;;26.97;;
13959;SDS011;7052;51.050;3.716;2023-02-15T11:20:23;43.20;;;26.43;;
13959;SDS011;7052;51.050;3.716;2023-02-15T11:22:54;47.40;;;25.47;;
13959;SDS011;7052;51.050;3.716;2023-02-15T11:25:23;43.27;;;26.70;;
13959;SDS011;7052;51.050;3.716;2023-02-15T11:27:55;40.63;;;27.53;;
13959;SDS011;7052;51.050;3.716;2023-02-15T11:30:24;58.67;;;28.17;;
13959;SDS011;7052;51.050;3.716;2023-02-15T11:32:55;40.63;;;25.90;;
13959;SDS011;7052;51.050;3.716;2023-02-15T11:35:27;72.10;;;29.10;;
13959;SDS011;7052;51.050;3.716;2023-02-15T11:37:59;82.13;;;28.53;;
13959;SDS011;7052;51.050;3.716;2023-02-15T11:40:33;37.63;;;25.47;;
13959;SDS011;7052;51.050;3.716;2023-02-15T11:43:03;45.47;;;25.67;;
13959;SDS011;7052;51.050;3.716;2023-02-15T11:45:38;37.83;;;26.07;;
13959;SDS011;7052;51.050;3.716;2023-02-15T11:48:09;54.93;;;27.67;;
13959;SDS011;7052;51.050;3.716;2023-02-15T11:50:38;38.73;;;27.23;;
13959;SDS011;7052;51.050;3.716;2023-02-15T11:53:09;47.80;;;27.10;;
13959;SDS011;7052;51.050;3.716;2023-02-15T11:55:39;38.77;;;26.47;;
13959;SDS011;7052;51.050;3.716;2023-02-15T11:58:13;50.87;;;27.70;;
13959;SDS011;7052;51.050;3.716;2023-02-15T12:00:52;64.33;;;28.07;;
13959;SDS011;7052;51.050;3.716;2023-02-15T12:03:24;55.47;;;27.80;;
13959;SDS011;7052;51.050;3.716;2023-02-15T12:06:00;63.17;;;28.07;;
13959;SDS011;7052;51.050;3.716;2023-02-15T12:08:31;50.53;;;28.17;;
13959;SDS011;7052;51.050;3.716;2023-02-15T12:11:05;60.37;;;29.40;;
13959;SDS011;7052;51.050;3.716;2023-02-15T12:13:37;44.70;;;27.40;;
13959;SDS011;7052;51.050;3.716;2023-02-15T12:16:23;52.30;;;27.43;;
13959;SDS011;7052;51.050;3.716;2023-02-15T12:18:52;46.90;;;28.92;;
13959;SDS011;7052;51.050;3.716;2023-02-15T12:21:25;66.13;;;34.33;;
13959;SDS011;7052;51.050;3.716;2023-02-15T12:23:58;55.57;;;30.37;;
13959;SDS011;7052;51.050;3.716;2023-02-15T12:26:30;49.27;;;27.37;;
13959;SDS011;7052;51.050;3.716;2023-02-15T12:28:59;39.10;;;26.77;;
13959;SDS011;7052;51.050;3.716;2023-02-15T12:31:39;43.00;;;27.07;;
13959;SDS011;7052;51.050;3.716;2023-02-15T12:34:09;55.63;;;28.10;;
13959;SDS011;7052;51.050;3.716;2023-02-15T12:36:40;40.77;;;26.93;;
13959;SDS011;7052;51.050;3.716;2023-02-15T12:39:19;42.00;;;26.40;;
13959;SDS011;7052;51.050;3.716;2023-02-15T12:41:59;43.27;;;27.43;;
13959;SDS011;7052;51.050;3.716;2023-02-15T12:44:31;38.07;;;26.30;;
13959;SDS011;7052;51.050;3.716;2023-02-15T12:47:02;49.43;;;27.33;;
13959;SDS011;7052;51.050;3.716;2023-02-15T12:49:31;65.10;;;29.33;;
13959;SDS011;7052;51.050;3.716;2023-02-15T12:51:59;51.07;;;27.40;;
13959;SDS011;7052;51.050;3.716;2023-02-15T12:54:30;47.80;;;26.70;;
13959;SDS011;7052;51.050;3.716;2023-02-15T12:57:22;54.50;;;27.77;;
13959;SDS011;7052;51.050;3.716;2023-02-15T12:59:53;57.80;;;28.10;;
13959;SDS011;7052;51.050;3.716;2023-02-15T13:02:25;56.87;;;28.33;;
13959;SDS011;7052;51.050;3.716;2023-02-15T13:05:04;47.93;;;27.27;;
13959;SDS011;7052;51.050;3.716;2023-02-15T13:07:44;61.83;;;27.93;;
13959;SDS011;7052;51.050;3.716;2023-02-15T13:10:21;42.40;;;26.87;;
13959;SDS011;7052;51.050;3.716;2023-02-15T13:12:52;56.03;;;28.33;;
13959;SDS011;7052;51.050;3.716;2023-02-15T13:15:27;58.67;;;29.73;;
13959;SDS011;7052;51.050;3.716;2023-02-15T13:18:00;39.53;;;26.77;;
13959;SDS011;7052;51.050;3.716;2023-02-15T13:20:29;55.43;;;29.37;;
13959;SDS011;7052;51.050;3.716;2023-02-15T13:22:58;38.53;;;26.60;;
13959;SDS011;7052;51.050;3.716;2023-02-15T13:25:31;41.20;;;27.70;;
13959;SDS011;7052;51.050;3.716;2023-02-15T13:28:05;42.63;;;27.60;;
13959;SDS011;7052;51.050;3.716;2023-02-15T13:30:40;44.60;;;27.33;;
13959;SDS011;7052;51.050;3.716;2023-02-15T13:33:14;41.23;;;27.40;;
13959;SDS011;7052;51.050;3.716;2023-02-15T13:35:46;44.60;;;27.97;;
13959;SDS011;7052;51.050;3.716;2023-02-15T13:38:35;53.63;;;27.70;;
13959;SDS011;7052;51.050;3.716;2023-02-15T13:41:40;43.63;;;28.33;;
13959;SDS011;7052;51.050;3.716;2023-02-15T13:44:20;40.30;;;26.70;;
13959;SDS011;7052;51.050;3.716;2023-02-15T13:47:01;61.27;;;28.70;;
13959;SDS011;7052;51.050;3.716;2023-02-15T13:49:41;45.33;;;27.37;;
13959;SDS011;7052;51.050;3.716;2023-02-15T13:52:19;42.67;;;27.67;;
13959;SDS011;7052;51.050;3.716;2023-02-15T13:54:57;54.23;;;29.40;;
13959;SDS011;7052;51.050;3.716;2023-02-15T14:00:34;62.23;;;31.70;;
13959;SDS011;7052;51.050;3.716;2023-02-15T14:03:16;61.93;;;29.83;;
13959;SDS011;7052;51.050;3.716;2023-02-15T14:06:13;50.77;;;29.80;;
13959;SDS011;7052;51.050;3.716;2023-02-15T14:08:54;49.00;;;28.70;;
13959;SDS011;7052;51.050;3.716;2023-02-15T14:11:33;41.63;;;27.27;;
13959;SDS011;7052;51.050;3.716;2023-02-15T14:14:15;43.00;;;28.63;;
13959;SDS011;7052;51.050;3.716;2023-02-15T14:17:06;46.23;;;28.53;;
13959;SDS011;7052;51.050;3.716;2023-02-15T14:19:43;51.38;;;32.75;;
13959;SDS011;7052;51.050;3.716;2023-02-15T14:22:19;56.17;;;30.40;;
13959;SDS011;7052;51.050;3.716;2023-02-15T14:24:56;59.37;;;29.97;;
13959;SDS011;7052;51.050;3.716;2023-02-15T14:27:39;40.30;;;26.97;;
13959;SDS011;7052;51.050;3.716;2023-02-15T14:30:16;40.90;;;27.20;;
13959;SDS011;7052;51.050;3.716;2023-02-15T14:32:48;40.60;;;27.73;;
13959;SDS011;7052;51.050;3.716;2023-02-15T14:35:20;46.07;;;28.13;;
13959;SDS011;7052;51.050;3.716;2023-02-15T14:37:54;41.73;;;26.43;;
13959;SDS011;7052;51.050;3.716;2023-02-15T14:40:31;47.07;;;27.40;;
13959;SDS011;7052;51.050;3.716;2023-02-15T14:43:23;40.70;;;26.13;;
13959;SDS011;7052;51.050;3.716;2023-02-15T14:45:58;41.03;;;26.90;;
13959;SDS011;7052;51.050;3.716;2023-02-15T14:48:36;66.20;;;28.07;;
13959;SDS011;7052;51.050;3.716;2023-02-15T14:51:08;59.27;;;30.97;;
13959;SDS011;7052;51.050;3.716;2023-02-15T14:53:37;57.80;;;29.77;;
13959;SDS011;7052;51.050;3.716;2023-02-15T14:56:17;50.40;;;27.57;;
13959;SDS011;7052;51.050;3.716;2023-02-15T14:58:59;53.17;;;27.80;;
13959;SDS011;7052;51.050;3.716;2023-02-15T15:01:39;48.90;;;27.33;;
13959;SDS011;7052;51.050;3.716;2023-02-15T15:04:07;53.23;;;27.87;;
13959;SDS011;7052;51.050;3.716;2023-02-15T15:06:38;62.10;;;29.67;;
13959;SDS011;7052;51.050;3.716;2023-02-15T15:09:12;50.90;;;27.67;;
13959;SDS011;7052;51.050;3.716;2023-02-15T15:11:46;55.43;;;28.23;;
13959;SDS011;7052;51.050;3.716;2023-02-15T15:17:04;37.97;;;25.73;;